createdAt,value
2023-05-19T00:00:25.047Z,91.94
2023-05-19T00:01:28.518Z,91.69
2023-05-19T00:02:33.974Z,91.88
2023-05-19T00:03:40.731Z,91.77
2023-05-19T00:04:42.797Z,91.79
2023-05-19T00:05:46.387Z,91.84
2023-05-19T00:06:51.632Z,92.10
2023-05-19T00:07:56.689Z,91.99
2023-05-19T00:09:01.754Z,92.29
2023-05-19T00:10:03.939Z,92.38
2023-05-19T00:11:06.530Z,92.43
2023-05-19T00:12:10.893Z,92.42
2023-05-19T00:13:13.085Z,92.16
2023-05-19T00:14:15.024Z,92.38
2023-05-19T00:15:17.223Z,92.49
2023-05-19T00:16:19.318Z,92.56
2023-05-19T00:17:21.486Z,92.70
2023-05-19T00:18:23.489Z,92.60
2023-05-19T00:19:25.739Z,93.24
2023-05-19T00:20:27.747Z,93.03
2023-05-19T00:21:30.121Z,92.74
2023-05-19T00:22:32.045Z,92.75
2023-05-19T00:23:34.004Z,92.62
2023-05-19T00:24:35.910Z,92.22
2023-05-19T00:25:37.910Z,92.38
2023-05-19T00:26:39.824Z,92.26
2023-05-19T00:27:41.750Z,92.20
2023-05-19T00:28:43.607Z,92.00
2023-05-19T00:29:45.440Z,91.92
2023-05-19T00:30:50.321Z,91.79
2023-05-19T00:31:52.348Z,91.75
2023-05-19T00:32:54.234Z,91.59
2023-05-19T00:33:56.267Z,91.67
2023-05-19T00:34:58.161Z,90.98
2023-05-19T00:36:03.384Z,91.42
2023-05-19T00:37:05.252Z,91.58
2023-05-19T00:38:07.201Z,91.23
2023-05-19T00:39:09.094Z,91.46
2023-05-19T00:40:11.106Z,91.48
2023-05-19T00:41:13.087Z,91.31
2023-05-19T00:42:15.128Z,91.61
2023-05-19T00:43:17.179Z,91.90
2023-05-19T00:44:19.050Z,91.92
2023-05-19T00:45:20.973Z,91.97
2023-05-19T00:46:23.412Z,92.20
2023-05-19T00:47:25.371Z,92.18
2023-05-19T00:48:27.965Z,92.28
2023-05-19T00:49:29.802Z,92.29
2023-05-19T00:50:32.212Z,92.69
2023-05-19T00:51:34.496Z,92.37
2023-05-19T00:52:36.437Z,92.37
2023-05-19T00:53:38.364Z,92.36
2023-05-19T00:54:40.277Z,92.25
2023-05-19T00:55:42.988Z,92.06
2023-05-19T00:56:44.946Z,92.40
2023-05-19T00:57:47.266Z,92.41
2023-05-19T00:58:51.130Z,92.82
2023-05-19T00:59:53.180Z,92.76
2023-05-19T01:00:56.364Z,92.99
2023-05-19T01:01:58.561Z,93.12
2023-05-19T01:03:00.781Z,93.33
2023-05-19T01:04:04.895Z,93.17
2023-05-19T01:05:07.434Z,93.04
2023-05-19T01:06:09.406Z,93.10
2023-05-19T01:07:12.809Z,92.75
2023-05-19T01:08:14.748Z,92.40
2023-05-19T01:09:17.679Z,92.67
2023-05-19T01:10:20.365Z,92.76
2023-05-19T01:11:22.491Z,92.79
2023-05-19T01:12:24.884Z,92.92
2023-05-19T01:13:27.817Z,93.11
2023-05-19T01:14:30.422Z,92.91
2023-05-19T01:15:40.418Z,93.05
2023-05-19T01:16:54.384Z,92.80
2023-05-19T01:18:08.739Z,92.94
2023-05-19T01:19:11.420Z,92.96
2023-05-19T01:20:17.383Z,92.84
2023-05-19T01:21:19.509Z,93.03
2023-05-19T01:22:23.243Z,92.81
2023-05-19T01:23:36.892Z,92.93
2023-05-19T01:24:48.248Z,93.06
2023-05-19T01:25:59.341Z,92.89
2023-05-19T01:27:01.342Z,92.95
2023-05-19T01:28:12.338Z,92.87
2023-05-19T01:29:25.453Z,92.69
2023-05-19T01:30:29.648Z,92.74
2023-05-19T01:31:31.865Z,93.18
2023-05-19T01:32:34.054Z,92.82
2023-05-19T01:33:36.640Z,92.79
2023-05-19T01:34:41.599Z,92.46
2023-05-19T01:35:44.141Z,92.54
2023-05-19T01:36:50.125Z,92.35
2023-05-19T01:37:53.330Z,92.45
2023-05-19T01:38:57.201Z,92.53
2023-05-19T01:39:59.321Z,92.38
2023-05-19T01:41:04.200Z,92.47
2023-05-19T01:42:07.044Z,92.31
2023-05-19T01:43:10.474Z,92.29
2023-05-19T01:44:12.486Z,92.13
2023-05-19T01:45:14.483Z,92.02
2023-05-19T01:46:16.843Z,91.91
2023-05-19T01:47:18.889Z,91.84
2023-05-19T01:48:21.456Z,91.72
2023-05-19T01:49:23.369Z,91.56
2023-05-19T01:50:25.414Z,91.49
2023-05-19T01:51:28.010Z,91.45
2023-05-19T01:52:29.844Z,91.35
2023-05-19T01:53:31.904Z,91.26
2023-05-19T01:54:34.126Z,91.27
2023-05-19T01:55:42.750Z,91.21
2023-05-19T01:56:58.408Z,90.95
2023-05-19T01:58:03.135Z,91.10
2023-05-19T01:59:14.973Z,91.28
2023-05-19T02:00:22.477Z,91.53
2023-05-19T02:01:43.299Z,91.21
2023-05-19T02:02:54.666Z,91.36
2023-05-19T02:03:56.529Z,91.18
2023-05-19T02:05:03.332Z,91.09
2023-05-19T02:06:14.458Z,91.13
2023-05-19T02:07:23.752Z,91.19
2023-05-19T02:08:44.795Z,91.25
2023-05-19T02:09:52.440Z,91.45
2023-05-19T02:11:17.278Z,92.16
2023-05-19T02:12:19.100Z,92.81
2023-05-19T02:13:24.209Z,92.93
2023-05-19T02:14:46.069Z,93.37
2023-05-19T02:15:49.101Z,93.52
2023-05-19T02:16:51.215Z,93.32
2023-05-19T02:17:54.784Z,93.01
2023-05-19T02:18:57.674Z,92.93
2023-05-19T02:19:59.971Z,93.17
2023-05-19T02:21:02.320Z,93.21
2023-05-19T02:22:04.368Z,93.18
2023-05-19T02:23:06.508Z,93.15
2023-05-19T02:24:08.527Z,93.31
2023-05-19T02:25:10.977Z,93.08
2023-05-19T02:26:12.916Z,93.63
2023-05-19T02:27:14.980Z,93.34
2023-05-19T02:28:16.929Z,93.90
2023-05-19T02:29:19.192Z,94.07
2023-05-19T02:30:21.263Z,93.88
2023-05-19T02:31:23.220Z,93.76
2023-05-19T02:32:25.192Z,93.75
2023-05-19T02:33:27.805Z,93.82
2023-05-19T02:34:29.810Z,93.64
2023-05-19T02:35:31.720Z,93.40
2023-05-19T02:36:35.260Z,93.26
2023-05-19T02:37:37.265Z,93.35
2023-05-19T02:38:39.125Z,93.15
2023-05-19T02:39:44.443Z,93.09
2023-05-19T02:40:46.347Z,93.07
2023-05-19T02:41:48.269Z,92.83
2023-05-19T02:42:50.227Z,92.99
2023-05-19T02:43:52.105Z,92.72
2023-05-19T02:44:54.858Z,93.12
2023-05-19T02:45:56.748Z,92.89
2023-05-19T02:46:58.747Z,92.90
2023-05-19T02:48:00.856Z,92.74
2023-05-19T02:49:02.782Z,92.78
2023-05-19T02:50:05.651Z,92.95
2023-05-19T02:51:07.661Z,93.25
2023-05-19T02:52:09.530Z,92.82
2023-05-19T02:53:11.525Z,92.92
2023-05-19T02:54:13.431Z,92.84
2023-05-19T02:55:17.521Z,92.71
2023-05-19T02:56:19.441Z,92.59
2023-05-19T02:57:22.437Z,92.67
2023-05-19T02:58:24.400Z,92.64
2023-05-19T02:59:26.379Z,92.70
2023-05-19T03:00:28.302Z,92.79
2023-05-19T03:01:30.150Z,92.77
2023-05-19T03:02:34.495Z,93.01
2023-05-19T03:03:36.774Z,93.18
2023-05-19T03:04:41.956Z,93.32
2023-05-19T03:05:43.956Z,93.53
2023-05-19T03:06:47.202Z,93.66
2023-05-19T03:07:49.094Z,93.59
2023-05-19T03:08:51.396Z,93.61
2023-05-19T03:09:53.381Z,93.35
2023-05-19T03:10:55.246Z,93.33
2023-05-19T03:11:57.134Z,93.05
2023-05-19T03:12:59.144Z,92.92
2023-05-19T03:14:01.174Z,93.26
2023-05-19T03:15:03.282Z,93.02
2023-05-19T03:16:05.284Z,92.96
2023-05-19T03:17:10.614Z,93.04
2023-05-19T03:18:12.981Z,93.34
2023-05-19T03:19:14.957Z,93.09
2023-05-19T03:20:16.843Z,92.86
2023-05-19T03:21:18.780Z,93.07
2023-05-19T03:22:21.629Z,92.66
2023-05-19T03:23:23.619Z,92.74
2023-05-19T03:24:25.708Z,92.48
2023-05-19T03:25:27.619Z,92.67
2023-05-19T03:26:33.151Z,92.96
2023-05-19T03:27:35.008Z,92.29
2023-05-19T03:28:36.918Z,92.17
2023-05-19T03:29:38.906Z,92.60
2023-05-19T03:30:41.075Z,92.15
2023-05-19T03:31:43.151Z,91.85
2023-05-19T03:32:45.119Z,92.08
2023-05-19T03:33:47.149Z,91.94
2023-05-19T03:34:49.092Z,91.92
2023-05-19T03:35:51.075Z,91.76
2023-05-19T03:36:52.976Z,91.98
2023-05-19T03:37:54.942Z,91.74
2023-05-19T03:38:56.880Z,92.19
2023-05-19T03:39:59.459Z,92.74
2023-05-19T03:41:01.400Z,92.63
2023-05-19T03:42:03.287Z,92.65
2023-05-19T03:43:05.212Z,92.82
2023-05-19T03:44:07.194Z,92.87
2023-05-19T03:45:09.298Z,92.95
2023-05-19T03:46:11.296Z,93.33
2023-05-19T03:47:13.235Z,93.18
2023-05-19T03:48:17.108Z,93.26
2023-05-19T03:49:20.328Z,93.29
2023-05-19T03:50:23.083Z,92.76
2023-05-19T03:51:25.052Z,92.93
2023-05-19T03:52:27.175Z,92.67
2023-05-19T03:53:30.702Z,92.99
2023-05-19T03:54:33.100Z,92.66
2023-05-19T03:55:35.025Z,92.44
2023-05-19T03:56:39.364Z,92.65
2023-05-19T03:57:44.735Z,92.55
2023-05-19T03:58:47.467Z,92.39
2023-05-19T03:59:49.508Z,92.57
2023-05-19T04:00:51.494Z,92.81
2023-05-19T04:01:53.550Z,92.54
2023-05-19T04:02:55.539Z,92.52
2023-05-19T04:03:57.520Z,92.51
2023-05-19T04:04:59.467Z,92.39
2023-05-19T04:06:01.401Z,92.27
2023-05-19T04:07:03.453Z,92.29
2023-05-19T04:08:05.430Z,92.04
2023-05-19T04:09:16.428Z,92.11
2023-05-19T04:10:19.442Z,91.96
2023-05-19T04:11:22.180Z,91.73
2023-05-19T04:12:24.449Z,92.00
2023-05-19T04:13:26.440Z,91.68
2023-05-19T04:14:28.360Z,91.86
2023-05-19T04:15:30.300Z,92.01
2023-05-19T04:16:32.301Z,91.84
2023-05-19T04:17:34.388Z,91.57
2023-05-19T04:18:36.278Z,91.18
2023-05-19T04:19:38.208Z,91.11
2023-05-19T04:20:40.087Z,91.45
2023-05-19T04:21:41.930Z,91.22
2023-05-19T04:22:43.969Z,91.44
2023-05-19T04:23:45.916Z,91.42
2023-05-19T04:24:47.947Z,91.31
2023-05-19T04:25:50.025Z,91.30
2023-05-19T04:26:52.473Z,91.39
2023-05-19T04:27:58.004Z,91.46
2023-05-19T04:28:59.902Z,91.71
2023-05-19T04:30:01.789Z,91.72
2023-05-19T04:31:03.790Z,91.75
2023-05-19T04:32:08.417Z,91.82
2023-05-19T04:33:10.500Z,91.57
2023-05-19T04:34:12.565Z,91.59
2023-05-19T04:35:15.742Z,91.63
2023-05-19T04:36:21.929Z,91.61
2023-05-19T04:37:24.586Z,91.41
2023-05-19T04:38:26.524Z,91.70
2023-05-19T04:39:28.500Z,91.29
2023-05-19T04:40:31.745Z,91.47
2023-05-19T04:41:36.769Z,91.59
2023-05-19T04:42:41.682Z,91.63
2023-05-19T04:43:44.970Z,91.63
2023-05-19T04:44:49.742Z,91.85
2023-05-19T04:45:51.756Z,92.18
2023-05-19T04:46:54.649Z,92.22
2023-05-19T04:47:58.441Z,92.16
2023-05-19T04:49:01.578Z,92.48
2023-05-19T04:50:04.550Z,92.50
2023-05-19T04:51:07.814Z,92.96
2023-05-19T04:52:13.180Z,93.03
2023-05-19T04:53:15.832Z,92.94
2023-05-19T04:54:17.794Z,92.86
2023-05-19T04:55:19.915Z,93.57
2023-05-19T04:56:22.535Z,93.49
2023-05-19T04:57:24.400Z,93.28
2023-05-19T04:58:26.673Z,93.31
2023-05-19T04:59:28.685Z,93.14
2023-05-19T05:00:31.101Z,93.44
2023-05-19T05:01:34.259Z,93.08
2023-05-19T05:02:37.720Z,92.70
2023-05-19T05:03:39.928Z,92.65
2023-05-19T05:04:44.333Z,92.56
2023-05-19T05:05:46.348Z,92.51
2023-05-19T05:06:49.040Z,92.27
2023-05-19T05:07:51.634Z,92.20
2023-05-19T05:08:53.616Z,92.16
2023-05-19T05:09:55.693Z,91.81
2023-05-19T05:10:57.953Z,92.02
2023-05-19T05:12:00.069Z,92.08
2023-05-19T05:13:02.249Z,91.87
2023-05-19T05:14:04.293Z,91.65
2023-05-19T05:15:07.328Z,91.77
2023-05-19T05:16:09.682Z,91.78
2023-05-19T05:17:13.061Z,91.82
2023-05-19T05:18:15.611Z,91.64
2023-05-19T05:19:17.715Z,91.75
2023-05-19T05:20:20.143Z,91.96
2023-05-19T05:21:23.434Z,91.97
2023-05-19T05:22:25.467Z,91.69
2023-05-19T05:23:27.623Z,91.84
2023-05-19T05:24:29.639Z,92.18
2023-05-19T05:25:32.136Z,91.93
2023-05-19T05:26:35.772Z,91.85
2023-05-19T05:27:37.763Z,92.03
2023-05-19T05:28:39.621Z,91.58
2023-05-19T05:29:41.478Z,91.49
2023-05-19T05:30:44.095Z,91.81
2023-05-19T05:31:47.417Z,91.67
2023-05-19T05:32:49.429Z,91.49
2023-05-19T05:33:51.555Z,91.70
2023-05-19T05:34:53.561Z,91.70
2023-05-19T05:35:55.505Z,91.69
2023-05-19T05:36:57.356Z,91.55
2023-05-19T05:37:59.340Z,91.57
2023-05-19T05:39:03.401Z,91.56
2023-05-19T05:40:07.316Z,91.72
2023-05-19T05:41:09.316Z,91.46
2023-05-19T05:42:11.339Z,92.02
2023-05-19T05:43:13.265Z,91.54
2023-05-19T05:44:15.135Z,91.71
2023-05-19T05:45:17.116Z,91.73
2023-05-19T05:46:19.199Z,91.66
2023-05-19T05:47:21.233Z,91.84
2023-05-19T05:48:23.694Z,91.78
2023-05-19T05:49:25.788Z,91.86
2023-05-19T05:50:27.837Z,91.90
2023-05-19T05:51:30.033Z,91.78
2023-05-19T05:52:32.769Z,91.33
2023-05-19T05:53:37.410Z,91.77
2023-05-19T05:54:39.487Z,91.75
2023-05-19T05:55:41.742Z,91.81
2023-05-19T05:56:43.729Z,91.76
2023-05-19T05:57:45.689Z,91.53
2023-05-19T05:58:47.790Z,91.71
2023-05-19T05:59:50.979Z,91.64
2023-05-19T06:00:53.747Z,91.48
2023-05-19T06:01:55.723Z,91.32
2023-05-19T06:02:59.634Z,91.48
2023-05-19T06:04:02.218Z,91.60
2023-05-19T06:05:04.283Z,91.87
2023-05-19T06:06:06.618Z,91.75
2023-05-19T06:07:08.705Z,91.86
2023-05-19T06:08:10.671Z,91.60
2023-05-19T06:09:12.761Z,91.62
2023-05-19T06:10:15.275Z,92.00
2023-05-19T06:11:17.270Z,91.77
2023-05-19T06:12:19.311Z,91.44
2023-05-19T06:13:24.281Z,91.55
2023-05-19T06:14:26.313Z,91.99
2023-05-19T06:15:28.248Z,91.47
2023-05-19T06:16:30.237Z,91.83
2023-05-19T06:17:32.335Z,91.82
2023-05-19T06:18:34.268Z,91.51
2023-05-19T06:19:36.128Z,91.16
2023-05-19T06:20:37.981Z,90.91
2023-05-19T06:21:39.895Z,90.70
2023-05-19T06:22:41.844Z,90.77
2023-05-19T06:23:43.945Z,90.58
2023-05-19T06:24:45.937Z,90.55
2023-05-19T06:25:47.929Z,90.25
2023-05-19T06:26:49.900Z,90.32
2023-05-19T06:27:51.885Z,90.11
2023-05-19T06:28:53.814Z,90.48
2023-05-19T06:29:55.702Z,90.82
2023-05-19T06:30:57.778Z,90.36
2023-05-19T06:31:59.754Z,90.00
2023-05-19T06:33:01.896Z,90.04
2023-05-19T06:34:03.883Z,89.56
2023-05-19T06:35:05.960Z,89.70
2023-05-19T06:36:10.250Z,89.95
2023-05-19T06:37:12.233Z,89.95
2023-05-19T06:38:14.114Z,89.42
2023-05-19T06:39:16.155Z,89.17
2023-05-19T06:40:18.104Z,88.65
2023-05-19T06:41:19.979Z,89.40
2023-05-19T06:42:25.712Z,89.06
2023-05-19T06:43:27.664Z,89.37
2023-05-19T06:44:29.674Z,89.14
2023-05-19T06:45:31.590Z,89.02
2023-05-19T06:46:33.621Z,88.88
2023-05-19T06:47:35.849Z,88.88
2023-05-19T06:48:37.809Z,89.17
2023-05-19T06:49:39.859Z,88.76
2023-05-19T06:50:41.743Z,89.31
2023-05-19T06:51:43.894Z,89.46
2023-05-19T06:52:47.382Z,89.24
2023-05-19T06:53:49.549Z,89.10
2023-05-19T06:54:51.614Z,89.19
2023-05-19T06:55:58.690Z,89.20
2023-05-19T06:57:01.489Z,89.09
2023-05-19T06:58:03.406Z,88.67
2023-05-19T06:59:05.370Z,87.60
2023-05-19T07:00:10.713Z,87.28
2023-05-19T07:01:12.603Z,86.86
2023-05-19T07:02:14.686Z,86.21
2023-05-19T07:03:16.761Z,86.47
2023-05-19T07:04:18.861Z,86.13
2023-05-19T07:05:21.019Z,86.00
2023-05-19T07:06:23.212Z,86.77
2023-05-19T07:07:25.168Z,87.02
2023-05-19T07:08:28.251Z,86.71
2023-05-19T07:09:30.125Z,86.78
2023-05-19T07:10:32.263Z,86.48
2023-05-19T07:11:34.264Z,86.19
2023-05-19T07:12:36.283Z,85.03
2023-05-19T07:13:38.273Z,85.14
2023-05-19T07:14:40.336Z,85.17
2023-05-19T07:15:42.274Z,85.27
2023-05-19T07:16:44.304Z,85.24
2023-05-19T07:17:46.352Z,85.85
2023-05-19T07:18:48.302Z,86.67
2023-05-19T07:19:50.220Z,87.33
2023-05-19T07:20:53.192Z,85.92
2023-05-19T07:21:55.916Z,86.08
2023-05-19T07:22:58.014Z,85.69
2023-05-19T07:23:59.997Z,86.57
2023-05-19T07:25:02.030Z,86.68
2023-05-19T07:26:04.130Z,86.35
2023-05-19T07:27:06.241Z,85.18
2023-05-19T07:28:08.195Z,85.21
2023-05-19T07:29:10.038Z,85.78
2023-05-19T07:30:12.266Z,85.86
2023-05-19T07:31:14.250Z,85.55
2023-05-19T07:32:16.315Z,85.33
2023-05-19T07:33:18.344Z,84.75
2023-05-19T07:34:21.215Z,85.08
2023-05-19T07:35:23.240Z,85.55
2023-05-19T07:36:25.172Z,84.72
2023-05-19T07:37:27.100Z,84.75
2023-05-19T07:38:29.182Z,84.52
2023-05-19T07:39:32.654Z,84.50
2023-05-19T07:40:34.689Z,84.56
2023-05-19T07:41:36.753Z,84.48
2023-05-19T07:42:38.637Z,85.48
2023-05-19T07:43:40.492Z,85.29
2023-05-19T07:44:42.483Z,85.97
2023-05-19T07:45:44.459Z,83.94
2023-05-19T07:46:46.434Z,83.26
2023-05-19T07:47:48.387Z,83.10
2023-05-19T07:48:50.369Z,83.56
2023-05-19T07:49:52.333Z,83.57
2023-05-19T07:50:54.423Z,83.88
2023-05-19T07:51:56.372Z,83.25
2023-05-19T07:52:58.326Z,82.85
2023-05-19T07:54:00.190Z,83.05
2023-05-19T07:55:02.116Z,83.80
2023-05-19T07:56:04.884Z,84.69
2023-05-19T07:57:06.847Z,85.28
2023-05-19T07:58:08.708Z,84.35
2023-05-19T07:59:10.824Z,86.24
2023-05-19T08:00:13.869Z,85.32
2023-05-19T08:01:15.850Z,85.00
2023-05-19T08:02:18.267Z,84.65
2023-05-19T08:03:21.367Z,84.02
2023-05-19T08:04:23.481Z,83.58
2023-05-19T08:05:26.351Z,83.53
2023-05-19T08:06:30.202Z,83.91
2023-05-19T08:07:32.169Z,82.33
2023-05-19T08:08:34.722Z,82.68
2023-05-19T08:09:36.790Z,82.75
2023-05-19T08:10:38.815Z,84.50
2023-05-19T08:11:40.925Z,83.97
2023-05-19T08:12:42.899Z,83.57
2023-05-19T08:13:47.931Z,83.48
2023-05-19T08:14:49.823Z,82.30
2023-05-19T08:15:51.784Z,83.14
2023-05-19T08:16:53.766Z,83.29
2023-05-19T08:17:56.399Z,82.99
2023-05-19T08:18:58.400Z,83.35
2023-05-19T08:20:00.746Z,82.09
2023-05-19T08:21:02.869Z,82.44
2023-05-19T08:22:04.901Z,82.35
2023-05-19T08:23:07.056Z,80.99
2023-05-19T08:24:09.367Z,81.50
2023-05-19T08:25:12.062Z,81.00
2023-05-19T08:26:14.028Z,81.11
2023-05-19T08:27:17.012Z,81.51
2023-05-19T08:28:18.899Z,82.29
2023-05-19T08:29:20.914Z,82.46
2023-05-19T08:30:22.826Z,83.39
2023-05-19T08:31:25.594Z,83.91
2023-05-19T08:32:27.539Z,83.87
2023-05-19T08:33:29.527Z,84.68
2023-05-19T08:34:32.804Z,83.53
2023-05-19T08:35:34.903Z,82.79
2023-05-19T08:36:36.806Z,82.24
2023-05-19T08:37:39.377Z,82.17
2023-05-19T08:38:41.300Z,81.06
2023-05-19T08:39:43.297Z,81.74
2023-05-19T08:40:47.026Z,81.40
2023-05-19T08:41:48.954Z,81.69
2023-05-19T08:42:50.883Z,80.80
2023-05-19T08:43:52.877Z,81.15
2023-05-19T08:44:54.889Z,82.84
2023-05-19T08:45:56.836Z,79.43
2023-05-19T08:47:01.171Z,78.84
2023-05-19T08:48:03.549Z,79.64
2023-05-19T08:49:09.749Z,80.24
2023-05-19T08:50:12.201Z,80.27
2023-05-19T08:51:32.611Z,81.03
2023-05-19T08:53:01.871Z,81.68
2023-05-19T08:54:15.051Z,80.49
2023-05-19T08:55:27.947Z,80.24
2023-05-19T08:56:30.517Z,79.35
2023-05-19T08:57:33.189Z,79.66
2023-05-19T08:58:35.232Z,83.30
2023-05-19T08:59:37.937Z,82.65
2023-05-19T09:00:39.947Z,80.76
2023-05-19T09:01:43.405Z,79.65
2023-05-19T09:02:55.219Z,79.41
2023-05-19T09:04:09.225Z,80.17
2023-05-19T09:05:11.391Z,80.92
2023-05-19T09:06:13.554Z,80.92
2023-05-19T09:07:15.942Z,80.70
2023-05-19T09:08:18.687Z,80.02
2023-05-19T09:09:20.621Z,80.22
2023-05-19T09:10:22.575Z,79.96
2023-05-19T09:11:24.507Z,80.35
2023-05-19T09:12:26.518Z,79.23
2023-05-19T09:13:28.554Z,79.52
2023-05-19T09:14:31.121Z,79.94
2023-05-19T09:15:34.487Z,79.97
2023-05-19T09:16:37.092Z,80.65
2023-05-19T09:17:40.032Z,80.66
2023-05-19T09:18:53.802Z,82.14
2023-05-19T09:19:56.293Z,81.58
2023-05-19T09:21:05.294Z,81.92
2023-05-19T09:22:07.509Z,81.23
2023-05-19T09:23:18.563Z,80.13
2023-05-19T09:24:20.935Z,80.30
2023-05-19T09:25:23.558Z,80.17
2023-05-19T09:26:25.668Z,79.89
2023-05-19T09:27:34.094Z,81.11
2023-05-19T09:28:36.758Z,80.55
2023-05-19T09:29:38.777Z,78.95
2023-05-19T09:30:40.767Z,76.49
2023-05-19T09:31:50.871Z,74.20
2023-05-19T09:32:52.965Z,76.56
2023-05-19T09:33:54.882Z,77.09
2023-05-19T09:34:57.397Z,77.23
2023-05-19T09:35:59.448Z,78.77
2023-05-19T09:37:01.457Z,76.91
2023-05-19T09:38:03.660Z,78.60
2023-05-19T09:39:13.407Z,77.14
2023-05-19T09:40:15.995Z,78.87
2023-05-19T09:41:18.038Z,77.12
2023-05-19T09:42:30.822Z,77.52
2023-05-19T09:43:34.256Z,77.37
2023-05-19T09:44:36.322Z,75.03
2023-05-19T09:45:38.210Z,76.35
2023-05-19T09:46:47.811Z,76.42
2023-05-19T09:47:49.717Z,77.65
2023-05-19T09:48:51.887Z,77.60
2023-05-19T09:49:54.142Z,77.50
2023-05-19T09:50:57.004Z,75.76
2023-05-19T09:52:00.057Z,75.97
2023-05-19T09:53:02.490Z,77.61
2023-05-19T09:54:04.946Z,75.64
2023-05-19T09:55:10.408Z,75.90
2023-05-19T09:56:15.425Z,76.16
2023-05-19T09:57:18.042Z,74.95
2023-05-19T09:58:20.928Z,77.22
2023-05-19T09:59:24.835Z,77.08
2023-05-19T10:00:27.646Z,76.85
2023-05-19T10:01:31.714Z,76.72
2023-05-19T10:02:34.075Z,77.35
2023-05-19T10:03:37.016Z,76.24
2023-05-19T10:04:39.017Z,74.72
2023-05-19T10:05:42.514Z,75.70
2023-05-19T10:06:44.558Z,75.65
2023-05-19T10:07:48.911Z,72.76
2023-05-19T10:08:52.656Z,75.80
2023-05-19T10:09:56.539Z,71.87
2023-05-19T10:10:59.578Z,72.77
2023-05-19T10:12:02.848Z,73.22
2023-05-19T10:13:05.670Z,73.38
2023-05-19T10:14:09.290Z,72.81
2023-05-19T10:15:12.357Z,72.33
2023-05-19T10:16:17.092Z,72.00
2023-05-19T10:17:19.030Z,69.63
2023-05-19T10:18:21.400Z,71.86
2023-05-19T10:19:24.880Z,72.76
2023-05-19T10:20:27.309Z,72.26
2023-05-19T10:21:29.266Z,69.43
2023-05-19T10:22:31.257Z,69.99
2023-05-19T10:23:33.441Z,70.73
2023-05-19T10:24:35.339Z,70.98
2023-05-19T10:25:38.554Z,67.77
2023-05-19T10:26:43.192Z,71.04
2023-05-19T10:27:50.590Z,69.34
2023-05-19T10:28:53.056Z,69.70
2023-05-19T10:29:57.859Z,69.35
2023-05-19T10:31:02.035Z,68.57
2023-05-19T10:32:08.666Z,67.10
2023-05-19T10:33:12.465Z,68.25
2023-05-19T10:34:22.422Z,66.84
2023-05-19T10:35:50.345Z,66.97
2023-05-19T10:37:03.970Z,66.93
2023-05-19T10:38:05.873Z,63.38
2023-05-19T10:39:28.155Z,65.21
2023-05-19T10:40:33.093Z,66.49
2023-05-19T10:41:37.657Z,67.15
2023-05-19T10:42:54.211Z,66.95
2023-05-19T10:44:10.355Z,65.10
2023-05-19T10:45:15.211Z,65.04
2023-05-19T10:46:17.277Z,62.58
2023-05-19T10:47:26.032Z,62.70
2023-05-19T10:48:33.547Z,64.16
2023-05-19T10:49:37.107Z,63.36
2023-05-19T10:50:39.044Z,62.74
2023-05-19T10:51:45.734Z,64.54
2023-05-19T10:52:54.193Z,57.60
2023-05-19T10:53:56.127Z,61.71
2023-05-19T10:54:58.697Z,62.09
2023-05-19T10:56:05.243Z,60.01
2023-05-19T10:57:08.521Z,57.42
2023-05-19T10:58:11.620Z,60.36
2023-05-19T10:59:32.977Z,60.78
2023-05-19T11:00:35.253Z,56.03
2023-05-19T11:01:38.649Z,58.18
2023-05-19T11:02:44.504Z,56.47
2023-05-19T11:03:50.455Z,56.02
2023-05-19T11:04:52.603Z,60.09
2023-05-19T11:06:14.406Z,58.48
2023-05-19T11:07:18.264Z,60.88
2023-05-19T11:08:32.587Z,61.15
2023-05-19T11:09:40.801Z,58.75
2023-05-19T11:10:46.522Z,56.69
2023-05-19T11:11:50.188Z,58.06
2023-05-19T11:12:52.416Z,57.76
2023-05-19T11:13:57.925Z,59.32
2023-05-19T11:14:59.900Z,59.48
2023-05-19T11:16:07.487Z,59.52
2023-05-19T11:17:14.169Z,60.73
2023-05-19T11:18:16.737Z,56.77
2023-05-19T11:19:28.647Z,58.86
2023-05-19T11:20:35.299Z,57.74
2023-05-19T11:21:49.427Z,55.55
2023-05-19T11:23:11.099Z,58.02
2023-05-19T11:24:32.902Z,57.47
2023-05-19T11:25:45.079Z,57.13
2023-05-19T11:26:47.816Z,54.50
2023-05-19T11:27:51.634Z,57.56
2023-05-19T11:28:54.055Z,58.96
2023-05-19T11:29:57.338Z,59.54
2023-05-19T11:31:00.336Z,58.94
2023-05-19T11:32:02.267Z,60.09
2023-05-19T11:33:04.941Z,56.02
2023-05-19T11:34:07.720Z,55.05
2023-05-19T11:35:10.281Z,55.89
2023-05-19T11:36:12.875Z,55.87
2023-05-19T11:37:14.817Z,56.22
2023-05-19T11:38:20.380Z,57.35
2023-05-19T11:39:22.439Z,56.76
2023-05-19T11:40:24.373Z,56.92
2023-05-19T11:41:28.757Z,57.99
2023-05-19T11:42:32.157Z,52.52
2023-05-19T11:43:34.190Z,51.55
2023-05-19T11:44:36.268Z,54.85
2023-05-19T11:45:38.292Z,53.64
2023-05-19T11:46:40.270Z,55.92
2023-05-19T11:48:00.885Z,54.73
2023-05-19T11:49:05.096Z,56.02
2023-05-19T11:50:07.343Z,54.93
2023-05-19T11:51:09.331Z,56.99
2023-05-19T11:52:11.494Z,55.49
2023-05-19T11:53:14.255Z,57.56
2023-05-19T11:54:17.132Z,58.08
2023-05-19T11:55:19.660Z,58.36
2023-05-19T11:56:21.881Z,56.86
2023-05-19T11:57:23.768Z,57.03
2023-05-19T11:58:28.087Z,54.71
2023-05-19T11:59:35.766Z,58.13
2023-05-19T12:00:40.241Z,55.38
2023-05-19T12:01:42.665Z,55.62
2023-05-19T12:02:44.587Z,56.50
2023-05-19T12:03:46.779Z,56.54
2023-05-19T12:04:52.521Z,57.56
2023-05-19T12:05:54.835Z,57.57
2023-05-19T12:06:56.703Z,54.11
2023-05-19T12:08:00.177Z,57.10
2023-05-19T12:09:02.074Z,58.47
2023-05-19T12:10:04.100Z,58.64
2023-05-19T12:11:06.892Z,56.55
2023-05-19T12:12:08.871Z,57.18
2023-05-19T12:13:11.231Z,57.98
2023-05-19T12:14:13.420Z,56.00
2023-05-19T12:15:17.351Z,56.40
2023-05-19T12:16:22.406Z,56.30
2023-05-19T12:17:24.510Z,57.74
2023-05-19T12:18:28.475Z,58.75
2023-05-19T12:19:31.054Z,59.90
2023-05-19T12:20:33.158Z,60.94
2023-05-19T12:21:35.478Z,60.34
2023-05-19T12:22:37.462Z,61.65
2023-05-19T12:23:40.319Z,61.60
2023-05-19T12:24:43.304Z,61.10
2023-05-19T12:25:45.673Z,56.99
2023-05-19T12:26:47.586Z,55.42
2023-05-19T12:27:49.993Z,56.09
2023-05-19T12:28:53.070Z,56.22
2023-05-19T12:29:56.096Z,51.96
2023-05-19T12:30:58.700Z,48.08
2023-05-19T12:32:01.551Z,44.71
2023-05-19T12:33:03.759Z,46.54
2023-05-19T12:34:05.793Z,47.81
2023-05-19T12:35:07.921Z,46.83
2023-05-19T12:36:10.409Z,47.45
2023-05-19T12:37:12.352Z,48.36
2023-05-19T12:38:14.939Z,44.95
2023-05-19T12:39:18.436Z,45.49
2023-05-19T12:40:21.523Z,44.79
2023-05-19T12:41:24.922Z,44.78
2023-05-19T12:42:31.654Z,45.15
2023-05-19T12:43:33.751Z,47.08
2023-05-19T12:44:55.140Z,46.46
2023-05-19T12:45:57.062Z,44.78
2023-05-19T12:46:59.987Z,45.38
2023-05-19T12:48:23.021Z,44.94
2023-05-19T12:49:25.082Z,44.24
2023-05-19T12:50:31.378Z,44.87
2023-05-19T12:51:33.559Z,46.24
2023-05-19T12:52:45.940Z,45.64
2023-05-19T12:53:48.133Z,46.39
2023-05-19T12:54:50.618Z,44.98
2023-05-19T12:55:53.216Z,44.91
2023-05-19T12:56:58.014Z,45.84
2023-05-19T12:57:59.890Z,45.03
2023-05-19T12:59:02.469Z,45.42
2023-05-19T13:00:07.282Z,45.68
2023-05-19T13:01:16.604Z,45.31
2023-05-19T13:02:19.833Z,44.81
2023-05-19T13:03:22.526Z,44.96
2023-05-19T13:04:25.287Z,45.55
2023-05-19T13:05:28.662Z,45.36
2023-05-19T13:06:30.560Z,45.71
2023-05-19T13:07:32.489Z,45.75
2023-05-19T13:08:34.482Z,46.12
2023-05-19T13:09:36.992Z,46.00
2023-05-19T13:10:39.930Z,45.61
2023-05-19T13:11:43.840Z,45.57
2023-05-19T13:12:45.727Z,45.38
2023-05-19T13:13:47.633Z,45.92
2023-05-19T13:14:49.541Z,47.77
2023-05-19T13:15:51.449Z,46.19
2023-05-19T13:16:53.518Z,45.99
2023-05-19T13:17:55.539Z,47.90
2023-05-19T13:18:57.558Z,45.99
2023-05-19T13:19:59.552Z,46.10
2023-05-19T13:21:01.685Z,46.34
2023-05-19T13:22:03.834Z,47.93
2023-05-19T13:23:06.327Z,48.45
2023-05-19T13:24:08.408Z,46.24
2023-05-19T13:25:10.575Z,45.77
2023-05-19T13:26:13.615Z,45.99
2023-05-19T13:27:15.595Z,46.36
2023-05-19T13:28:17.451Z,47.18
2023-05-19T13:29:19.298Z,46.08
2023-05-19T13:30:22.165Z,45.15
2023-05-19T13:31:24.156Z,46.52
2023-05-19T13:32:26.116Z,48.11
2023-05-19T13:33:28.025Z,46.87
2023-05-19T13:34:29.917Z,46.83
2023-05-19T13:35:37.600Z,46.60
2023-05-19T13:36:40.243Z,46.38
2023-05-19T13:37:42.742Z,48.21